Blabla — OS7401 — position and weather

sailwx.info

Track history (hours):
 
Tides and Currents Weather Stations Pressure Air Temp Water Temp Dewpoint Dewpoint Depression Visibility Wind Speed Wind Dir Waves Ship Positions

Blabla

Last reported at 2017-Aug-17 14:48 UTC. Time now 2017-Nov-22 18:40 UTC.
Position N 47°30' W 002°27'.
Warning: this ship's position is months out of date.

Length 15 m.

Type: Sailing vessel. MMSI: 205740100.

Date/timePositionNaut miles runAvg speedWind from/ knotsBaromVisibWave heightAir tempDewpointWater temp
2017-Aug-17 14:48N 47°30' W 002°27'2 4.0
2017-Aug-17 14:25N 47°30' W 002°30'2 4.3
2017-Aug-17 13:54N 47°30' W 002°33'2 4.5
2017-Aug-17 13:28N 47°29' W 002°35'2 4.5
2017-Aug-17 13:00N 47°29' W 002°38'3 4.6
2017-Aug-17 12:27N 47°29' W 002°42'2 4.2
2017-Aug-17 12:00N 47°29' W 002°45'3 4.7
2017-Aug-17 11:27N 47°29' W 002°49'2 5.2
2017-Aug-17 11:00N 47°29' W 002°52'2 4.3
2017-Aug-17 10:30N 47°30' W 002°55'2 4.5
2017-Aug-17 10:00N 47°32' W 002°58'3 5.3
2017-Aug-17 09:30N 47°34' W 003°00'2 0.1
2017-Aug-16 13:17N 47°35' W 003°01'0 0.0
2017-Aug-16 12:59N 47°35' W 003°01'0 0.0
2017-Aug-16 11:40N 47°35' W 003°01'0 0.7
2017-Aug-16 11:22N 47°35' W 003°01'0 0.7
2017-Aug-16 11:00N 47°35' W 003°01'3 5.4
2017-Aug-16 10:30N 47°32' W 003°00'3 5.1
2017-Aug-16 09:54N 47°29' W 002°59'5 0.3
2017-Aug-15 13:48N 47°24' W 002°58'  
2017-Aug-12 10:02N 46°37' W 002°01'1 7.1
2017-Aug-12 09:50N 46°36' W 001°60'2 6.9
2017-Aug-12 09:29N 46°34' W 001°58'3 7.1
2017-Aug-12 09:00N 46°31' W 001°54'3 6.7
2017-Aug-12 08:30N 46°29' W 001°51'2 4.1
2017-Aug-12 08:00N 46°28' W 001°48'3 6.0
2017-Aug-12 07:30N 46°26' W 001°44'2 4.7
2017-Aug-12 07:01N 46°25' W 001°41'1 0.0
2017-Aug-11 14:57N 46°26' W 001°41'2 5.5
2017-Aug-11 14:31N 46°24' W 001°40'3 2.9
2017-Aug-11 13:29N 46°22' W 001°37'17 4.2
2017-Aug-11 09:22N 46°13' W 001°15'2 4.3
2017-Aug-11 09:00N 46°12' W 001°15'2 3.7
2017-Aug-11 08:30N 46°10' W 001°15'1 1.3
2017-Aug-11 07:54N 46°09' W 001°15'1 2.4
2017-Aug-11 07:30N 46°09' W 001°14'2 4.3
2017-Aug-11 07:00N 46°09' W 001°11'  
2017-Aug-08 12:34N 46°09' W 001°10'0 0.1
2017-Aug-08 12:07N 46°09' W 001°10'0 0.8
2017-Aug-08 12:00N 46°09' W 001°10'  
Track history (hours):
 
Tides and Currents Weather Stations Pressure Air Temp Water Temp Dewpoint Dewpoint Depression Visibility Wind Speed Wind Dir Waves Ship Positions

Blabla

Last reported at 2017-Aug-17 14:48 UTC. Time now 2017-Nov-22 18:40 UTC.
Position N 47°30' W 002°27'.
Warning: this ship's position is months out of date.

Length 15 m.

Type: Sailing vessel. MMSI: 205740100.

Date/timePositionNaut miles runAvg speedWind from/ knotsBaromVisibWave heightAir tempDewpointWater temp
2017-Aug-17 14:48N 47°30' W 002°27'2 4.0
2017-Aug-17 14:25N 47°30' W 002°30'2 4.3
2017-Aug-17 13:54N 47°30' W 002°33'2 4.5
2017-Aug-17 13:28N 47°29' W 002°35'2 4.5
2017-Aug-17 13:00N 47°29' W 002°38'3 4.6
2017-Aug-17 12:27N 47°29' W 002°42'2 4.2
2017-Aug-17 12:00N 47°29' W 002°45'3 4.7
2017-Aug-17 11:27N 47°29' W 002°49'2 5.2
2017-Aug-17 11:00N 47°29' W 002°52'2 4.3
2017-Aug-17 10:30N 47°30' W 002°55'2 4.5
2017-Aug-17 10:00N 47°32' W 002°58'3 5.3
2017-Aug-17 09:30N 47°34' W 003°00'2 0.1
2017-Aug-16 13:17N 47°35' W 003°01'0 0.0
2017-Aug-16 12:59N 47°35' W 003°01'0 0.0
2017-Aug-16 11:40N 47°35' W 003°01'0 0.7
2017-Aug-16 11:22N 47°35' W 003°01'0 0.7
2017-Aug-16 11:00N 47°35' W 003°01'3 5.4
2017-Aug-16 10:30N 47°32' W 003°00'3 5.1
2017-Aug-16 09:54N 47°29' W 002°59'5 0.3
2017-Aug-15 13:48N 47°24' W 002°58'  
2017-Aug-12 10:02N 46°37' W 002°01'1 7.1
2017-Aug-12 09:50N 46°36' W 001°60'2 6.9
2017-Aug-12 09:29N 46°34' W 001°58'3 7.1
2017-Aug-12 09:00N 46°31' W 001°54'3 6.7
2017-Aug-12 08:30N 46°29' W 001°51'2 4.1
2017-Aug-12 08:00N 46°28' W 001°48'3 6.0
2017-Aug-12 07:30N 46°26' W 001°44'2 4.7
2017-Aug-12 07:01N 46°25' W 001°41'1 0.0
2017-Aug-11 14:57N 46°26' W 001°41'2 5.5
2017-Aug-11 14:31N 46°24' W 001°40'3 2.9
2017-Aug-11 13:29N 46°22' W 001°37'17 4.2
2017-Aug-11 09:22N 46°13' W 001°15'2 4.3
2017-Aug-11 09:00N 46°12' W 001°15'2 3.7
2017-Aug-11 08:30N 46°10' W 001°15'1 1.3
2017-Aug-11 07:54N 46°09' W 001°15'1 2.4
2017-Aug-11 07:30N 46°09' W 001°14'2 4.3
2017-Aug-11 07:00N 46°09' W 001°11'  
2017-Aug-08 12:34N 46°09' W 001°10'0 0.1
2017-Aug-08 12:07N 46°09' W 001°10'0 0.8
2017-Aug-08 12:00N 46°09' W 001°10'  

Dump ship's entire track history